createdAt,value
2018-02-11T00:01:46.501Z,60.51
2018-02-11T00:04:13.772Z,60.81
2018-02-11T00:06:41.398Z,60.99
2018-02-11T00:09:08.711Z,61.09
2018-02-11T00:11:36.368Z,61.13
2018-02-11T00:14:03.717Z,61.15
2018-02-11T00:16:31.469Z,61.13
2018-02-11T00:18:58.704Z,61.22
2018-02-11T00:21:26.146Z,61.13
2018-02-11T00:23:53.628Z,61.18
2018-02-11T00:26:21.217Z,60.96
2018-02-11T00:28:48.671Z,61.06
2018-02-11T00:31:16.610Z,61.03
2018-02-11T00:33:43.912Z,61.02
2018-02-11T00:36:11.604Z,60.68
2018-02-11T00:38:38.799Z,60.63
2018-02-11T00:41:06.519Z,60.55
2018-02-11T00:43:33.739Z,60.26
2018-02-11T00:46:01.327Z,60.20
2018-02-11T00:48:28.720Z,60.50
2018-02-11T00:50:56.483Z,60.83
2018-02-11T00:53:23.730Z,61.03
2018-02-11T00:55:51.439Z,61.16
2018-02-11T00:58:18.742Z,61.35
2018-02-11T01:00:46.468Z,61.43
2018-02-11T01:03:13.683Z,61.47
2018-02-11T01:05:41.465Z,61.43
2018-02-11T01:08:08.726Z,61.20
2018-02-11T01:10:36.484Z,61.10
2018-02-11T01:13:03.703Z,60.96
2018-02-11T01:15:31.517Z,60.52
2018-02-11T01:17:58.772Z,60.22
2018-02-11T01:20:26.517Z,59.97
2018-02-11T01:22:53.745Z,59.77
2018-02-11T01:25:21.465Z,59.81
2018-02-11T01:27:48.679Z,60.21
2018-02-11T01:30:16.223Z,60.49
2018-02-11T01:32:43.651Z,60.65
2018-02-11T01:35:11.407Z,60.73
2018-02-11T01:37:38.682Z,60.88
2018-02-11T01:40:07.358Z,60.89
2018-02-11T01:42:34.708Z,60.88
2018-02-11T01:45:02.476Z,61.14
2018-02-11T01:47:29.723Z,61.13
2018-02-11T01:49:57.490Z,61.26
2018-02-11T01:52:24.785Z,60.99
2018-02-11T01:54:52.652Z,60.39
2018-02-11T01:57:20.488Z,60.40
2018-02-11T01:59:47.759Z,60.55
2018-02-11T02:02:15.540Z,60.35
2018-02-11T02:04:42.745Z,60.40
2018-02-11T02:07:10.632Z,60.69
2018-02-11T02:09:38.401Z,60.70
2018-02-11T02:12:05.764Z,60.81
2018-02-11T02:14:33.589Z,60.69
2018-02-11T02:17:00.774Z,60.94
2018-02-11T02:19:28.388Z,60.79
2018-02-11T02:21:55.760Z,60.48
2018-02-11T02:24:23.521Z,60.52
2018-02-11T02:26:50.748Z,60.82
2018-02-11T02:29:18.383Z,60.97
2018-02-11T02:31:45.708Z,61.00
2018-02-11T02:34:13.378Z,60.80
2018-02-11T02:36:40.722Z,60.39
2018-02-11T02:39:08.403Z,60.17
2018-02-11T02:41:35.718Z,60.41
2018-02-11T02:44:03.518Z,60.14
2018-02-11T02:46:30.731Z,60.51
2018-02-11T02:48:58.511Z,60.76
2018-02-11T02:51:25.744Z,60.77
2018-02-11T02:53:53.548Z,60.89
2018-02-11T02:56:20.764Z,60.92
2018-02-11T02:58:48.490Z,60.74
2018-02-11T03:01:15.718Z,60.74
2018-02-11T03:03:43.512Z,60.77
2018-02-11T03:06:10.787Z,60.69
2018-02-11T03:08:38.484Z,60.71
2018-02-11T03:11:05.746Z,60.07
2018-02-11T03:13:33.504Z,59.78
2018-02-11T03:16:00.694Z,59.44
2018-02-11T03:18:28.268Z,59.50
2018-02-11T03:20:55.685Z,59.58
2018-02-11T03:23:23.202Z,59.91
2018-02-11T03:25:50.580Z,60.17
2018-02-11T03:28:17.738Z,60.13
2018-02-11T03:30:45.665Z,60.11
2018-02-11T03:33:13.251Z,60.75
2018-02-11T03:35:40.721Z,60.62
2018-02-11T03:38:08.366Z,60.56
2018-02-11T03:40:35.743Z,60.84
2018-02-11T03:45:25.621Z,60.48
2018-02-11T03:47:53.032Z,60.22
2018-02-11T03:50:20.645Z,60.06
2018-02-11T03:52:48.402Z,59.95
2018-02-11T03:55:15.726Z,59.73
2018-02-11T03:57:43.397Z,59.54
2018-02-11T04:00:10.793Z,59.82
2018-02-11T04:02:38.674Z,60.07
2018-02-11T04:05:06.513Z,59.91
2018-02-11T04:07:33.746Z,60.07
2018-02-11T04:10:01.532Z,60.23
2018-02-11T04:12:28.739Z,60.26
2018-02-11T04:14:56.433Z,60.19
2018-02-11T04:17:23.695Z,60.21
2018-02-11T04:19:50.951Z,60.34
2018-02-11T04:22:18.613Z,60.50
2018-02-11T04:24:45.835Z,60.55
2018-02-11T04:27:13.650Z,60.61
2018-02-11T04:29:40.882Z,60.33
2018-02-11T04:32:08.588Z,59.89
2018-02-11T04:34:35.716Z,59.66
2018-02-11T04:37:03.481Z,59.67
2018-02-11T04:39:30.717Z,59.63
2018-02-11T04:41:58.498Z,59.77
2018-02-11T04:44:25.686Z,59.77
2018-02-11T04:46:53.431Z,60.12
2018-02-11T04:49:20.703Z,60.18
2018-02-11T04:51:48.440Z,60.11
2018-02-11T04:54:15.731Z,60.35
2018-02-11T04:56:43.461Z,60.36
2018-02-11T04:59:10.782Z,60.26
2018-02-11T05:01:38.512Z,59.92
2018-02-11T05:04:05.756Z,59.81
2018-02-11T05:06:33.520Z,59.78
2018-02-11T05:09:00.759Z,59.28
2018-02-11T05:11:28.510Z,59.02
2018-02-11T05:13:55.719Z,59.11
2018-02-11T05:16:23.429Z,59.11
2018-02-11T05:18:50.751Z,58.89
2018-02-11T05:21:18.623Z,59.00
2018-02-11T05:23:45.926Z,59.17
2018-02-11T05:26:13.582Z,59.49
2018-02-11T05:28:40.740Z,59.56
2018-02-11T05:31:08.498Z,59.75
2018-02-11T05:33:35.751Z,59.68
2018-02-11T05:36:03.506Z,59.78
2018-02-11T05:38:30.728Z,59.97
2018-02-11T05:40:58.449Z,59.52
2018-02-11T05:43:25.712Z,59.11
2018-02-11T05:45:53.470Z,58.52
2018-02-11T05:48:20.732Z,57.73
2018-02-11T05:50:48.399Z,57.87
2018-02-11T05:53:15.708Z,57.87
2018-02-11T05:55:43.504Z,57.88
2018-02-11T05:58:10.760Z,58.02
2018-02-11T06:00:38.506Z,58.42
2018-02-11T06:03:05.712Z,58.47
2018-02-11T06:05:33.353Z,58.63
2018-02-11T06:08:00.759Z,58.78
2018-02-11T06:10:28.575Z,58.86
2018-02-11T06:12:55.739Z,58.94
2018-02-11T06:15:23.498Z,58.68
2018-02-11T06:17:50.711Z,58.90
2018-02-11T06:20:18.542Z,58.71
2018-02-11T06:22:45.723Z,58.55
2018-02-11T06:25:13.341Z,58.36
2018-02-11T06:27:40.746Z,58.12
2018-02-11T06:30:08.301Z,57.75
2018-02-11T06:32:35.746Z,58.17
2018-02-11T06:35:03.535Z,58.35
2018-02-11T06:37:30.789Z,59.09
2018-02-11T06:39:58.624Z,58.63
2018-02-11T06:42:25.940Z,59.37
2018-02-11T06:44:53.646Z,59.44
2018-02-11T06:47:21.390Z,59.44
2018-02-11T06:49:48.744Z,59.61
2018-02-11T06:52:16.643Z,59.63
2018-02-11T06:54:44.191Z,59.49
2018-02-11T06:57:11.709Z,58.65
2018-02-11T06:59:39.382Z,58.06
2018-02-11T07:02:06.779Z,57.77
2018-02-11T07:04:34.581Z,57.20
2018-02-11T07:07:01.807Z,56.99
2018-02-11T07:09:29.673Z,56.94
2018-02-11T07:11:57.333Z,57.40
2018-02-11T07:14:24.754Z,57.96
2018-02-11T07:16:52.393Z,58.38
2018-02-11T07:19:19.807Z,57.96
2018-02-11T07:21:47.704Z,58.78
2018-02-11T07:24:15.409Z,58.74
2018-02-11T07:26:42.763Z,58.96
2018-02-11T07:29:10.700Z,57.92
2018-02-11T07:31:38.499Z,57.62
